Terminal Aerodrome Forecast
Issued by NWS

Home | Current Version | Previous Version | Graphics & Text | Print | Product List | Glossary On
Versions: 1 2 3 4 5 6 7 8 9 10 11 12 13 14 15 16 17 18 19 20 21 22 23 24 25 26
000
FTUS43 KABR 212335
TAFATY
TAF
KATY 212335Z 2200/2224 22014KT P6SM SCT250
     FM220200 28007KT P6SM VCTS SCT080CB BKN200
     FM220400 33007KT P6SM SCT200
     FM221400 09006KT P6SM -SHRA VCTS OVC090CB
     FM222000 24007KT P6SM BKN120
     FM222300 29010KT P6SM SCT150=

USA.gov is the U.S. government's official web portal to all federal, state and local government web resources and services.